Aiguafreda





Hora UTC 09:40
Temperatura 14.0 ºC
Sòl 15 cm 16.0 ºC
Humitat 84.8 %
Pressió 1011.9 hPa
Pluja 10.0 mm
Velocitat vent 12.0 km/h
Direcció vent SSE
Radiació solar 664.0 W/m²

Dades diàries 2021-05-14



Hora UTC (hivern +1h; estiu +2h)
Temperatura (ºC) Humitat (%) Pressió (hPa) Velocitat vent (km/h) Precipitació (mm) Radiació solar (W/m²)
Hora UTC Aire Sòl 15 cm Humitat Pressió Vel. Dir. Vel. Max Dir. Intent. màx 5 min. Rad. Sol.
00:05 14.3 13.7 73.5 1009.6 2.8 ENE 2.8 NE 0.0 0.0
00:10 14.3 13.6 73.6 1009.6 0.0 NNE 0.0 NNW 0.0 0.0
00:15 14.3 13.7 73.6 1009.7 5.9 SW 11.5 SW 0.0 0.0
00:20 14.2 13.8 73.5 1009.7 4.3 SSW 8.8 E 0.0 0.0
00:25 14.2 13.7 73.8 1009.6 3.3 WSW 11.5 W 0.0 0.0
00:30 14.2 13.7 73.6 1009.5 0.0 NNE 0.0 W 0.0 0.0
00:35 14.2 13.7 73.5 1009.5 0.5 W 3.4 W 0.0 0.0
00:40 14.2 13.6 73.8 1009.5 3.2 SW 6.1 SW 0.0 0.0
00:45 14.2 13.6 74.2 1009.6 0.8 SSE 3.4 SSE 0.0 0.0
00:50 14.1 13.5 74.8 1009.4 0.4 E 6.1 ESE 0.0 0.0
00:55 14.0 13.4 74.9 1009.4 0.8 NE 6.1 NE 0.0 0.0
01:00 13.9 13.3 75.1 1009.4 0.6 NE 3.4 NE 0.0 0.0
01:05 13.9 13.3 75.1 1009.4 0.1 ENE 3.4 ENE 0.0 0.0
01:10 13.9 13.3 75.2 1009.4 0.2 S 3.4 W 0.0 0.0
01:15 13.9 13.3 75.3 1009.2 0.6 SSW 3.4 ESE 0.0 0.0
01:20 13.9 13.3 74.7 1009.3 2.5 SW 6.1 SSW 0.0 0.0
01:25 13.9 13.3 74.1 1009.2 0.4 S 6.1 SSE 0.0 0.0
01:30 13.9 13.4 74.2 1009.3 0.0 NE 3.4 NE 0.0 0.0
01:35 13.9 13.4 74.2 1009.1 0.0 NNE 0.0 NE 0.0 0.0
01:40 14.0 13.4 74.9 1009.2 0.0 NNE 0.0 ENE 0.0 0.0
01:45 13.9 13.4 74.7 1009.1 0.0 N 3.4 N 0.0 0.0
01:50 13.9 13.4 74.5 1009.1 0.0 NNE 0.0 NNW 0.0 0.0
01:55 13.9 13.4 74.6 1009.1 0.2 NE 3.4 NE 0.0 0.0
02:00 14.0 13.4 74.9 1009.1 0.0 NNE 0.0 NE 0.0 0.0
02:05 14.0 13.4 74.3 1009.2 0.0 NNE 0.0 NE 0.0 0.0
02:10 14.0 13.4 74.5 1009.1 0.0 NNE 0.0 NE 0.0 0.0
02:15 13.9 13.4 74.5 1009.0 0.0 NNE 0.0 N 0.0 0.0
02:20 13.9 13.4 74.5 1009.0 0.8 W 3.4 W 0.0 0.0
02:25 13.9 13.4 74.3 1009.1 0.3 SW 3.4 WSW 0.0 0.0
02:30 13.9 13.4 74.5 1008.9 0.0 NNE 0.0 SSW 0.0 0.0
02:35 13.9 13.4 74.5 1008.9 0.0 NNE 0.0 SSE 0.0 0.0
02:40 13.9 13.4 74.4 1008.9 0.0 NNE 0.0 S 0.0 0.0
02:45 13.9 13.4 74.7 1008.9 1.2 WSW 6.1 W 0.0 0.0
02:50 13.8 13.3 74.6 1009.0 3.3 SSW 6.1 SW 0.0 0.0
02:55 13.8 13.3 74.7 1009.0 1.7 SSE 6.1 S 0.0 0.0
03:00 13.8 13.3 74.8 1008.9 2.1 SSE 6.1 SSE 0.0 0.0
03:05 13.8 13.3 74.8 1009.0 1.7 S 6.1 SSE 0.0 0.0
03:10 13.9 13.3 74.5 1009.0 2.2 SSE 6.1 SSE 0.0 0.0
03:15 13.9 13.4 74.1 1009.0 2.1 SSE 6.1 SE 0.0 0.0
03:20 13.9 13.3 74.6 1009.0 0.6 E 3.4 NE 0.0 0.0
03:25 13.8 13.3 75.1 1009.1 2.3 SE 6.1 SSE 0.0 0.0
03:30 13.8 13.3 75.0 1009.1 3.3 SSE 6.1 SSE 0.0 0.0
03:35 13.8 13.3 75.0 1009.2 1.2 SE 3.4 SSE 0.0 0.0
03:40 13.8 13.3 75.1 1009.3 0.9 SSW 3.4 SSW 0.0 0.0
03:45 13.8 13.2 75.7 1009.4 1.1 NE 6.1 NE 0.0 0.0
03:50 13.7 13.2 76.1 1009.2 1.4 ESE 8.8 E 0.0 0.0
03:55 13.7 13.2 76.1 1009.1 0.9 ESE 6.1 E 0.0 0.0
04:00 13.7 13.2 76.3 1009.2 0.4 ESE 3.4 ESE 0.0 0.0
04:05 13.7 13.1 76.2 1009.0 0.0 NNE 0.0 ESE 0.0 0.0
04:10 13.7 13.1 76.2 1009.3 0.8 WSW 3.4 WSW 0.0 0.0
04:15 13.7 13.1 75.6 1009.2 1.0 SW 3.4 SW 0.0 0.0
04:20 13.7 13.1 75.0 1009.2 3.2 SW 8.8 SSW 0.0 0.0
04:25 13.7 13.1 74.6 1009.2 3.4 SSW 6.1 SW 0.0 0.0
04:30 13.7 13.2 74.6 1009.3 2.7 SSE 6.1 SSE 0.0 0.0
04:35 13.7 13.2 74.9 1009.2 4.1 SSE 8.8 SSE 0.0 0.0
04:40 13.7 13.2 74.8 1009.1 4.4 SE 8.8 SE 0.0 0.0
04:45 13.6 13.2 74.4 1009.2 4.5 SE 8.8 SSE 0.0 0.0
04:50 13.6 13.2 74.5 1009.2 2.0 SSE 8.8 SE 0.0 0.0
04:55 13.7 13.1 75.2 1009.2 1.1 SW 3.4 WSW 0.0 0.0
05:00 13.6 13.1 75.2 1009.2 0.1 WSW 3.4 WSW 0.0 0.0
05:05 13.6 13.1 75.3 1009.2 0.2 SW 3.4 WSW 0.0 0.0
05:10 13.7 13.1 75.3 1009.4 2.1 SW 6.1 S 0.0 0.0
05:15 13.6 13.1 74.9 1009.5 2.8 SSW 6.1 WSW 0.0 0.0
05:20 13.6 13.1 74.6 1009.6 3.9 SSW 8.8 SSW 0.0 0.0
05:25 13.5 13.1 74.8 1009.7 4.5 SSW 8.8 SW 0.0 0.0
05:30 13.5 13.0 75.0 1009.6 4.8 SSE 8.8 SSW 0.0 0.0
05:35 13.4 13.0 75.1 1009.6 4.9 SSE 8.8 SSE 0.0 0.0
05:40 13.4 13.0 75.4 1009.7 5.7 SSE 11.5 S 0.0 0.0
05:45 13.4 13.0 75.6 1009.6 4.8 SE 11.5 SSE 0.0 0.0
05:50 13.4 13.0 75.7 1009.6 3.9 SSE 8.8 SSE 0.0 0.0
05:55 13.4 13.0 75.8 1009.8 2.7 SSE 8.8 S 0.0 0.0
06:00 13.4 13.0 75.9 1009.8 4.2 SE 8.8 SE 0.0 0.0
06:05 13.4 13.0 75.8 1009.9 5.2 SE 14.2 SSE 0.0 0.0
06:10 13.4 13.0 75.7 1009.9 3.0 SE 8.8 SE 0.0 0.0
06:15 13.4 13.0 75.6 1010.0 7.3 SSE 11.5 SSE 0.0 0.0
06:20 13.4 13.0 75.9 1010.1 3.9 SE 11.5 ESE 0.0 0.0
06:25 13.3 12.8 77.7 1010.2 5.4 SSE 11.5 S 0.2 0.0
06:30 12.9 12.3 82.2 1010.3 4.6 SE 8.8 SE 0.3 0.0
06:35 12.6 12.0 84.9 1010.3 2.7 SE 6.1 ESE 0.2 0.0
06:40 12.4 11.7 86.8 1010.6 3.8 S 14.2 S 0.8 0.0
06:45 12.2 11.4 88.2 1010.7 0.8 SSE 6.1 ESE 1.2 0.0
06:50 12.1 11.4 89.6 1010.7 2.0 ESE 6.1 S 0.1 0.0
06:55 11.8 11.2 90.1 1010.7 1.6 ESE 6.1 ESE 0.3 0.3
07:00 11.7 11.2 90.6 1010.9 0.3 ENE 6.1 NE 0.4 7.1
07:05 11.6 11.0 90.8 1011.1 0.2 SSE 3.4 SSE 1.3 30.8
07:10 11.6 11.1 91.6 1011.0 1.3 ESE 6.1 SE 2.1 40.7
07:15 11.6 11.1 92.2 1010.9 1.3 SE 6.1 SE 0.1 44.6
07:20 11.5 11.1 92.7 1011.0 0.0 NNE 0.0 SSE 0.3 46.1
07:25 11.6 11.3 93.1 1011.1 0.9 WSW 3.4 WSW 0.4 44.5
07:30 11.5 11.3 92.9 1011.0 0.0 NNE 0.0 SW 0.7 68.5
07:35 11.6 11.5 93.2 1011.1 0.0 NNE 0.0 WSW 0.7 100.3
07:40 11.7 11.5 93.3 1011.1 0.1 SSE 3.4 SSE 0.4 100.3
07:45 11.7 11.8 93.6 1011.1 0.1 SE 3.4 SE 0.1 135.8
07:50 11.8 12.0 93.8 1011.1 0.0 SE 3.4 SE 0.2 221.4
07:55 12.1 12.5 93.8 1011.2 0.0 SE 3.4 SE 0.1 218.7
08:00 12.2 12.5 93.3 1011.3 0.1 S 3.4 S 0.1 153.1
08:05 12.2 12.5 92.7 1011.3 0.1 SSW 3.4 SSW 0.0 234.1
08:10 12.7 14.2 93.6 1011.4 0.1 SE 3.4 SE 0.0 686.7
08:15 13.3 14.9 92.3 1011.2 0.0 SE 3.4 SE 0.0 327.4
08:20 13.5 13.8 91.4 1011.5 2.2 SSE 6.1 S 0.0 132.7
08:25 13.1 13.3 90.9 1011.5 2.3 SSE 6.1 SSE 0.0 127.6
08:30 13.1 13.6 92.0 1011.5 0.5 S 6.1 S 0.0 165.3
08:35 13.3 13.9 92.3 1011.6 0.3 SW 3.4 SSW 0.0 285.7
08:40 13.5 14.4 92.2 1011.5 0.4 ENE 3.4 E 0.0 265.6
08:45 13.6 14.5 91.1 1011.6 2.0 E 6.1 ESE 0.0 164.2
08:50 13.7 14.3 90.9 1011.6 2.0 SE 8.8 E 0.0 213.1
08:55 13.7 14.8 90.3 1011.6 4.3 ESE 11.5 ESE 0.0 591.4
09:00 14.1 15.8 87.9 1011.6 3.0 SE 8.8 SSE 0.0 544.6
09:05 14.2 15.8 83.6 1011.6 0.5 SE 6.1 SE 0.0 284.7
09:10 14.6 16.1 85.0 1011.7 2.7 SE 8.8 SE 0.0 292.5
09:15 14.6 16.4 82.4 1011.6 4.3 SE 8.8 SSE 0.0 578.6
09:20 14.9 16.7 82.1 1011.6 5.6 SSE 11.5 SSE 0.0 415.8
09:25 14.9 16.1 81.2 1011.8 6.8 S 16.9 SSW 0.0 218.2
09:30 14.5 15.6 83.3 1012.0 4.4 S 14.2 S 0.0 228.7
09:35 14.2 15.4 84.1 1012.0 9.1 SSE 16.9 S 0.0 392.7
09:40 14.0 16.0 84.8 1011.9 12.0 SSE 22.3 SSE 0.0 664.0
Màxima 15.0 16.7 93.8 1012.0 12.0 SSE 22.3 SSE 2.1 686.7
Mínima 11.5 11.0 73.5 1008.9
Total 10.0